createdAt,value
2018-12-11T00:01:49.611Z,4.60
2018-12-11T00:03:51.707Z,2.93
2018-12-11T00:05:53.661Z,4.63
2018-12-11T00:07:55.611Z,4.30
2018-12-11T00:09:57.563Z,3.90
2018-12-11T00:11:59.519Z,4.47
2018-12-11T00:14:01.515Z,4.57
2018-12-11T00:16:03.467Z,3.33
2018-12-11T00:18:05.414Z,4.23
2018-12-11T00:20:07.375Z,3.60
2018-12-11T00:22:09.334Z,3.90
2018-12-11T00:24:11.387Z,4.30
2018-12-11T00:26:13.326Z,4.10
2018-12-11T00:28:15.290Z,3.90
2018-12-11T00:30:17.247Z,3.60
2018-12-11T00:32:19.195Z,5.73
2018-12-11T00:34:21.134Z,4.60
2018-12-11T00:36:23.085Z,4.00
2018-12-11T00:38:25.039Z,4.10
2018-12-11T00:40:27.007Z,4.20
2018-12-11T00:42:28.976Z,3.63
2018-12-11T00:44:30.954Z,4.33
2018-12-11T00:46:32.902Z,4.33
2018-12-11T00:48:34.867Z,4.10
2018-12-11T00:50:36.818Z,5.20
2018-12-11T00:52:38.754Z,4.60
2018-12-11T00:54:40.732Z,4.57
2018-12-11T00:56:42.679Z,3.57
2018-12-11T00:58:44.630Z,5.07
2018-12-11T01:00:46.582Z,3.30
2018-12-11T01:02:48.551Z,4.03
2018-12-11T01:04:50.510Z,4.30
2018-12-11T01:06:52.463Z,4.63
2018-12-11T01:08:55.163Z,4.20
2018-12-11T01:10:57.114Z,4.00
2018-12-11T01:12:59.063Z,4.80
2018-12-11T01:15:01.018Z,4.77
2018-12-11T01:17:02.974Z,4.00
2018-12-11T01:19:04.959Z,3.60
2018-12-11T01:21:06.915Z,4.80
2018-12-11T01:23:08.866Z,4.20
2018-12-11T01:25:10.815Z,4.50
2018-12-11T01:27:12.772Z,4.57
2018-12-11T01:29:14.851Z,5.20
2018-12-11T01:31:16.790Z,4.60
2018-12-11T01:33:18.735Z,4.10
2018-12-11T01:35:20.711Z,4.10
2018-12-11T01:37:22.648Z,5.00
2018-12-11T01:39:24.605Z,4.67
2018-12-11T01:41:26.554Z,4.37
2018-12-11T01:43:28.510Z,5.40
2018-12-11T01:45:30.508Z,4.50
2018-12-11T01:47:32.466Z,3.73
2018-12-11T01:49:34.418Z,4.50
2018-12-11T01:51:36.386Z,3.93
2018-12-11T01:53:38.342Z,4.67
2018-12-11T01:55:40.379Z,4.57
2018-12-11T01:57:42.343Z,3.30
2018-12-11T01:59:44.362Z,5.43
2018-12-11T02:01:46.318Z,5.10
2018-12-11T02:03:48.271Z,4.20
2018-12-11T02:05:50.230Z,4.77
2018-12-11T02:07:52.175Z,4.70
2018-12-11T02:09:54.123Z,5.00
2018-12-11T02:11:56.082Z,4.20
2018-12-11T02:13:58.063Z,4.10
2018-12-11T02:16:00.025Z,3.70
2018-12-11T02:18:01.970Z,4.70
2018-12-11T02:20:05.374Z,3.90
2018-12-11T02:22:07.326Z,4.20
2018-12-11T02:24:09.279Z,3.63
2018-12-11T02:26:11.230Z,4.70
2018-12-11T02:28:13.178Z,4.27
2018-12-11T02:30:15.145Z,4.07
2018-12-11T02:32:17.098Z,4.67
2018-12-11T02:34:19.056Z,3.17
2018-12-11T02:36:21.063Z,5.53
2018-12-11T02:38:23.006Z,2.97
2018-12-11T02:40:24.970Z,4.90
2018-12-11T02:42:26.924Z,3.63
2018-12-11T02:44:28.872Z,4.27
2018-12-11T02:46:30.955Z,4.10
2018-12-11T02:48:32.903Z,4.50
2018-12-11T02:50:34.847Z,4.37
2018-12-11T02:52:36.808Z,4.13
2018-12-11T02:54:38.760Z,3.90
2018-12-11T02:56:40.834Z,4.10
2018-12-11T02:58:42.775Z,3.00
2018-12-11T03:00:44.830Z,3.90
2018-12-11T03:02:46.791Z,4.90
2018-12-11T03:04:48.758Z,4.00
2018-12-11T03:06:50.816Z,3.13
2018-12-11T03:08:52.774Z,3.00
2018-12-11T03:10:54.727Z,4.50
2018-12-11T03:12:56.694Z,3.60
2018-12-11T03:14:58.637Z,3.53
2018-12-11T03:17:00.599Z,3.53
2018-12-11T03:19:02.554Z,4.60
2018-12-11T03:21:04.523Z,3.63
2018-12-11T03:23:06.487Z,4.33
2018-12-11T03:25:08.440Z,4.10
2018-12-11T03:27:10.394Z,4.97
2018-12-11T03:29:12.347Z,3.53
2018-12-11T03:31:14.300Z,4.47
2018-12-11T03:33:16.247Z,3.67
2018-12-11T03:35:18.217Z,3.93
2018-12-11T03:37:20.275Z,4.37
2018-12-11T03:39:22.254Z,4.17
2018-12-11T03:41:24.265Z,3.60
2018-12-11T03:43:26.330Z,4.23
2018-12-11T03:45:28.283Z,4.00
2018-12-11T03:47:30.234Z,5.10
2018-12-11T03:49:32.179Z,3.37
2018-12-11T03:51:34.130Z,4.67
2018-12-11T03:53:36.091Z,3.13
2018-12-11T03:55:38.078Z,4.00
2018-12-11T03:57:40.031Z,3.97
2018-12-11T03:59:41.992Z,3.63
2018-12-11T04:01:44.084Z,4.60
2018-12-11T04:03:46.046Z,3.80
2018-12-11T04:05:48.016Z,4.30
2018-12-11T04:07:49.986Z,4.37
2018-12-11T04:09:52.046Z,4.00
2018-12-11T04:11:54.616Z,3.83
2018-12-11T04:13:56.571Z,3.60
2018-12-11T04:15:58.514Z,3.53
2018-12-11T04:18:00.470Z,3.37
2018-12-11T04:20:03.191Z,3.77
2018-12-11T04:22:05.144Z,2.87
2018-12-11T04:24:07.101Z,3.27
2018-12-11T04:26:09.159Z,3.77
2018-12-11T04:28:17.966Z,3.27
2018-12-11T04:30:19.923Z,4.23
2018-12-11T04:32:21.883Z,3.97
2018-12-11T04:34:23.843Z,3.63
2018-12-11T04:36:25.798Z,3.87
2018-12-11T04:38:27.787Z,4.40
2018-12-11T04:40:29.854Z,3.83
2018-12-11T04:42:31.903Z,4.00
2018-12-11T04:44:33.862Z,3.83
2018-12-11T04:46:35.817Z,3.63
2018-12-11T04:48:37.772Z,4.07
2018-12-11T04:50:39.722Z,3.30
2018-12-11T04:52:41.678Z,3.27
2018-12-11T04:54:43.646Z,3.27
2018-12-11T04:56:45.693Z,4.37
2018-12-11T04:58:47.638Z,4.33
2018-12-11T05:00:49.594Z,2.63
2018-12-11T05:02:51.550Z,3.77
2018-12-11T05:04:53.510Z,3.47
2018-12-11T05:06:55.487Z,3.77
2018-12-11T05:08:57.455Z,3.50
2018-12-11T05:10:59.407Z,2.93
2018-12-11T05:13:01.362Z,3.03
2018-12-11T05:15:03.568Z,3.40
2018-12-11T05:17:05.618Z,3.30
2018-12-11T05:19:07.583Z,3.27
2018-12-11T05:21:09.531Z,3.80
2018-12-11T05:23:11.474Z,3.10
2018-12-11T05:25:13.434Z,2.87
2018-12-11T05:27:15.386Z,3.60
2018-12-11T05:29:17.362Z,2.47
2018-12-11T05:31:19.386Z,3.07
2018-12-11T05:33:21.326Z,2.83
2018-12-11T05:35:23.285Z,2.37
2018-12-11T05:37:25.450Z,2.83
2018-12-11T05:39:27.931Z,2.20
2018-12-11T05:41:29.879Z,2.67
2018-12-11T05:43:31.903Z,3.20
2018-12-11T05:45:33.855Z,2.80
2018-12-11T05:47:35.798Z,2.50
2018-12-11T05:49:37.767Z,3.17
2018-12-11T05:51:39.714Z,2.50
2018-12-11T05:53:41.670Z,3.07
2018-12-11T05:55:43.634Z,2.87
2018-12-11T05:57:45.574Z,2.27
2018-12-11T05:59:47.530Z,2.60
2018-12-11T06:01:49.496Z,3.10
2018-12-11T06:03:51.491Z,2.60
2018-12-11T06:05:53.443Z,3.20
2018-12-11T06:07:55.407Z,2.60
2018-12-11T06:09:57.342Z,3.00
2018-12-11T06:11:59.303Z,3.33
2018-12-11T06:14:01.322Z,3.37
2018-12-11T06:16:03.336Z,2.37
2018-12-11T06:18:05.282Z,2.43
2018-12-11T06:20:07.235Z,3.90
2018-12-11T06:22:09.185Z,2.30
2018-12-11T06:24:11.138Z,4.73
2018-12-11T06:26:13.099Z,3.77
2018-12-11T06:28:15.051Z,3.00
2018-12-11T06:30:16.982Z,2.70
2018-12-11T06:32:18.918Z,3.43
2018-12-11T06:34:20.863Z,4.90
2018-12-11T06:36:22.825Z,3.40
2018-12-11T06:38:25.450Z,3.00
2018-12-11T06:40:27.398Z,3.60
2018-12-11T06:42:29.343Z,3.90
2018-12-11T06:44:31.286Z,3.60
2018-12-11T06:46:33.235Z,3.50
2018-12-11T06:48:35.180Z,3.47
2018-12-11T06:50:37.143Z,3.50
2018-12-11T06:52:39.098Z,3.53
2018-12-11T06:54:41.050Z,3.50
2018-12-11T06:56:43.007Z,3.40
2018-12-11T06:58:45.023Z,3.70
2018-12-11T07:00:46.983Z,3.57
2018-12-11T07:02:48.946Z,3.00
2018-12-11T07:04:50.995Z,2.57
2018-12-11T07:06:52.946Z,3.33
2018-12-11T07:08:54.902Z,3.60
2018-12-11T07:10:56.853Z,3.40
2018-12-11T07:12:58.794Z,3.90
2018-12-11T07:15:00.754Z,4.10
2018-12-11T07:17:02.774Z,2.90
2018-12-11T07:19:04.723Z,2.60
2018-12-11T07:21:06.667Z,2.70
2018-12-11T07:23:08.623Z,2.53
2018-12-11T07:25:10.566Z,2.93
2018-12-11T07:27:12.518Z,3.97
2018-12-11T07:29:14.519Z,3.17
2018-12-11T07:31:16.547Z,3.00
2018-12-11T07:33:19.449Z,2.90
2018-12-11T07:35:21.683Z,3.27
2018-12-11T07:37:23.750Z,2.80
2018-12-11T07:39:25.708Z,2.60
2018-12-11T07:41:27.766Z,3.67
2018-12-11T07:43:29.720Z,3.27
2018-12-11T07:45:31.667Z,2.90
2018-12-11T07:47:33.746Z,3.47
2018-12-11T07:49:35.698Z,2.73
2018-12-11T07:51:37.649Z,2.80
2018-12-11T07:53:39.606Z,2.70
2018-12-11T07:55:41.558Z,2.70
2018-12-11T07:57:43.523Z,2.87
2018-12-11T07:59:45.576Z,3.10
2018-12-11T08:01:47.547Z,2.80
2018-12-11T08:03:49.501Z,2.37
2018-12-11T08:05:51.450Z,3.13
2018-12-11T08:07:53.407Z,3.00
2018-12-11T08:09:55.355Z,3.17
2018-12-11T08:11:57.302Z,2.60
2018-12-11T08:13:59.264Z,2.20
2018-12-11T08:16:01.223Z,2.60
2018-12-11T08:18:03.204Z,3.10
2018-12-11T08:20:05.266Z,4.00
2018-12-11T08:22:07.211Z,3.47
2018-12-11T08:24:09.206Z,3.37
2018-12-11T08:26:11.154Z,3.00
2018-12-11T08:28:13.125Z,3.23
2018-12-11T08:30:15.078Z,3.10
2018-12-11T08:32:17.070Z,2.90
2018-12-11T08:34:19.027Z,3.27
2018-12-11T08:36:20.979Z,3.80
2018-12-11T08:38:22.931Z,2.90
2018-12-11T08:40:24.916Z,2.97
2018-12-11T08:42:26.867Z,2.83
2018-12-11T08:44:28.823Z,2.97
2018-12-11T08:46:30.760Z,3.53
2018-12-11T08:48:32.819Z,2.73
2018-12-11T08:50:34.778Z,3.70
2018-12-11T08:52:36.731Z,3.07
2018-12-11T08:54:38.683Z,3.53
2018-12-11T08:56:40.623Z,3.43
2018-12-11T08:58:42.587Z,2.80
2018-12-11T09:00:44.539Z,3.33
2018-12-11T09:02:46.543Z,4.60
2018-12-11T09:04:48.500Z,3.10
2018-12-11T09:06:50.455Z,3.30
2018-12-11T09:08:52.423Z,3.47
2018-12-11T09:10:54.367Z,2.77
2018-12-11T09:12:56.311Z,2.77
2018-12-11T09:14:58.271Z,3.80
2018-12-11T09:17:00.215Z,3.70
2018-12-11T09:19:02.170Z,4.17
2018-12-11T09:21:04.134Z,3.30
2018-12-11T09:23:06.093Z,3.70
2018-12-11T09:25:08.054Z,4.27
2018-12-11T09:27:10.007Z,3.20
2018-12-11T09:29:11.966Z,3.77
2018-12-11T09:31:14.027Z,3.50
2018-12-11T09:33:15.970Z,3.73
2018-12-11T09:35:17.929Z,3.67
2018-12-11T09:37:19.982Z,4.00
2018-12-11T09:39:21.943Z,3.40
2018-12-11T09:41:23.897Z,4.03
2018-12-11T09:43:25.843Z,3.27
2018-12-11T09:45:27.787Z,4.07
2018-12-11T09:47:29.799Z,3.20
2018-12-11T09:49:31.767Z,4.00
2018-12-11T09:51:33.719Z,4.50
2018-12-11T09:53:35.666Z,3.80
2018-12-11T09:55:37.620Z,3.77
2018-12-11T09:57:39.567Z,3.43
2018-12-11T09:59:41.519Z,3.57
2018-12-11T10:01:43.463Z,3.37
2018-12-11T10:03:45.406Z,3.80
2018-12-11T10:05:47.348Z,4.40
2018-12-11T10:07:49.308Z,4.07
2018-12-11T10:09:51.270Z,4.17
2018-12-11T10:11:53.218Z,3.60
2018-12-11T10:13:55.169Z,3.27
2018-12-11T10:15:57.127Z,4.23
2018-12-11T10:17:59.081Z,3.73
2018-12-11T10:20:01.043Z,4.00
2018-12-11T10:22:03.000Z,4.03
2018-12-11T10:24:04.954Z,3.60
2018-12-11T10:26:06.911Z,4.40
2018-12-11T10:28:08.858Z,3.70
2018-12-11T10:30:10.858Z,3.67
2018-12-11T10:32:12.798Z,3.83
2018-12-11T10:34:14.742Z,4.70
2018-12-11T10:36:16.694Z,4.40
2018-12-11T10:38:18.647Z,4.00
2018-12-11T10:40:20.599Z,4.17
2018-12-11T10:42:22.558Z,4.50
2018-12-11T10:44:24.522Z,4.63
2018-12-11T10:46:26.470Z,5.20
2018-12-11T10:48:28.415Z,4.53
2018-12-11T10:50:30.367Z,4.30
2018-12-11T10:52:32.318Z,4.47
2018-12-11T10:54:34.264Z,3.80
2018-12-11T10:56:36.223Z,4.20
2018-12-11T10:58:38.161Z,4.53
2018-12-11T11:00:43.918Z,3.93
2018-12-11T11:02:51.670Z,4.50
2018-12-11T11:04:53.686Z,3.80
2018-12-11T11:06:55.632Z,4.80
2018-12-11T11:08:57.578Z,4.83
2018-12-11T11:10:59.542Z,4.03
2018-12-11T11:13:01.493Z,3.93
2018-12-11T11:15:03.687Z,4.33
2018-12-11T11:17:05.742Z,4.70
2018-12-11T11:19:07.691Z,4.60
2018-12-11T11:21:09.713Z,4.50
2018-12-11T11:23:11.762Z,4.93
2018-12-11T11:25:13.707Z,5.33
2018-12-11T11:27:15.670Z,4.50
2018-12-11T11:29:17.662Z,3.73
2018-12-11T11:31:19.619Z,4.50
2018-12-11T11:33:21.574Z,3.53
2018-12-11T11:35:23.528Z,4.67
2018-12-11T11:37:25.478Z,4.60
2018-12-11T11:39:27.418Z,4.40
2018-12-11T11:41:29.362Z,4.47
2018-12-11T11:43:31.363Z,5.10
2018-12-11T11:45:33.298Z,3.80
2018-12-11T11:47:35.351Z,3.93
2018-12-11T11:49:37.290Z,5.10
2018-12-11T11:51:39.239Z,6.27
2018-12-11T11:53:41.186Z,4.53
2018-12-11T11:55:43.136Z,4.23
2018-12-11T11:57:45.091Z,4.40
2018-12-11T11:59:47.035Z,5.30
2018-12-11T12:01:48.978Z,4.30
2018-12-11T12:03:50.923Z,4.43
2018-12-11T12:05:52.863Z,4.50
2018-12-11T12:07:54.798Z,4.00
2018-12-11T12:09:56.734Z,4.30
2018-12-11T12:11:58.666Z,4.77
2018-12-11T12:14:00.602Z,4.80
2018-12-11T12:16:02.538Z,4.33
2018-12-11T12:18:04.490Z,4.10
2018-12-11T12:20:08.111Z,3.97
2018-12-11T12:22:10.167Z,4.77
2018-12-11T12:24:12.110Z,4.70
2018-12-11T12:26:14.059Z,4.90
2018-12-11T12:28:16.004Z,4.53
2018-12-11T12:30:18.467Z,5.03
2018-12-11T12:32:20.415Z,3.77
2018-12-11T12:34:22.363Z,4.20
2018-12-11T12:36:24.299Z,5.40
2018-12-11T12:38:26.256Z,4.90
2018-12-11T12:40:28.194Z,4.33
2018-12-11T12:42:30.138Z,4.57
2018-12-11T12:44:32.098Z,4.37
2018-12-11T12:46:34.042Z,3.87
2018-12-11T12:48:35.991Z,4.60
2018-12-11T12:50:37.935Z,4.90
2018-12-11T12:52:40.765Z,5.00
2018-12-11T12:54:43.026Z,4.60
2018-12-11T12:56:44.978Z,4.27
2018-12-11T12:58:46.930Z,5.10
2018-12-11T13:00:48.986Z,4.40
2018-12-11T13:02:50.923Z,4.73
2018-12-11T13:04:52.871Z,4.50
2018-12-11T13:06:54.807Z,4.40
2018-12-11T13:08:57.163Z,4.60
2018-12-11T13:10:59.109Z,4.70
2018-12-11T13:13:01.470Z,4.40
2018-12-11T13:15:07.154Z,4.60
2018-12-11T13:17:08.127Z,4.63
2018-12-11T13:19:10.138Z,5.30
2018-12-11T13:21:12.062Z,4.63
2018-12-11T13:23:14.003Z,4.77
2018-12-11T13:25:15.951Z,4.40
2018-12-11T13:27:17.903Z,4.43
2018-12-11T13:29:19.843Z,5.67
2018-12-11T13:31:21.787Z,4.40
2018-12-11T13:33:23.731Z,4.77
2018-12-11T13:35:25.800Z,4.37
2018-12-11T13:37:27.847Z,4.03
2018-12-11T13:39:29.803Z,4.60
2018-12-11T13:41:31.834Z,4.60
2018-12-11T13:43:33.778Z,4.03
2018-12-11T13:45:35.723Z,3.90
2018-12-11T13:47:37.779Z,4.70
2018-12-11T13:49:39.723Z,4.40
2018-12-11T13:51:41.659Z,4.27
2018-12-11T13:53:43.602Z,4.90
2018-12-11T13:55:45.555Z,4.00
2018-12-11T13:57:47.491Z,4.30
2018-12-11T13:59:49.431Z,4.07
2018-12-11T14:01:51.442Z,3.90
2018-12-11T14:03:53.387Z,4.00
2018-12-11T14:05:55.330Z,3.73
2018-12-11T14:07:57.330Z,3.53
2018-12-11T14:09:59.279Z,4.10
2018-12-11T14:12:01.226Z,4.33
2018-12-11T14:14:03.166Z,3.80
2018-12-11T14:16:05.117Z,4.33
2018-12-11T14:18:07.059Z,3.20
2018-12-11T14:20:09.006Z,3.70
2018-12-11T14:22:10.950Z,3.13
2018-12-11T14:24:12.908Z,3.90
2018-12-11T14:26:15.016Z,4.27
2018-12-11T14:28:17.067Z,3.70
2018-12-11T14:30:19.014Z,4.00
2018-12-11T14:32:20.963Z,4.73
2018-12-11T14:34:22.902Z,4.90
2018-12-11T14:36:24.876Z,4.13
2018-12-11T14:38:26.809Z,4.20
2018-12-11T14:40:28.774Z,4.07
2018-12-11T14:42:30.718Z,4.00
2018-12-11T14:44:32.670Z,4.90
2018-12-11T14:46:34.626Z,4.50
2018-12-11T14:48:36.573Z,3.77
2018-12-11T14:50:38.517Z,4.00
2018-12-11T14:52:40.454Z,5.23
2018-12-11T14:54:42.398Z,4.30
2018-12-11T14:56:44.347Z,4.00
2018-12-11T14:58:46.307Z,2.93
2018-12-11T15:00:48.285Z,3.30
2018-12-11T15:02:50.544Z,3.23
2018-12-11T15:04:52.495Z,3.43
2018-12-11T15:06:54.438Z,2.83
2018-12-11T15:09:01.023Z,3.40
2018-12-11T15:11:02.983Z,3.03
2018-12-11T15:13:05.042Z,2.93
2018-12-11T15:15:08.450Z,2.93
2018-12-11T15:17:10.400Z,2.83
2018-12-11T15:19:12.349Z,3.60
2018-12-11T15:21:14.326Z,2.73
2018-12-11T15:23:16.271Z,2.33
2018-12-11T15:25:18.218Z,2.50
2018-12-11T15:27:20.183Z,2.33
2018-12-11T15:29:22.134Z,2.23
2018-12-11T15:31:24.095Z,2.27
2018-12-11T15:33:26.055Z,2.70
2018-12-11T15:35:28.010Z,2.50
2018-12-11T15:37:30.003Z,2.70
2018-12-11T15:39:35.831Z,2.80
2018-12-11T15:41:36.127Z,3.00
2018-12-11T15:43:38.074Z,2.77
2018-12-11T15:45:40.739Z,2.37
2018-12-11T15:47:42.694Z,2.40
2018-12-11T15:49:44.639Z,2.60
2018-12-11T15:51:46.602Z,2.40
2018-12-11T15:53:48.547Z,2.30
2018-12-11T15:55:50.498Z,2.50
2018-12-11T15:57:52.554Z,2.27
2018-12-11T15:59:54.506Z,2.10
2018-12-11T16:01:56.485Z,2.20
2018-12-11T16:03:58.458Z,2.10
2018-12-11T16:06:00.407Z,2.30
2018-12-11T16:08:02.358Z,1.80
2018-12-11T16:10:05.643Z,2.30
2018-12-11T16:12:07.591Z,3.13
2018-12-11T16:14:09.538Z,2.37
2018-12-11T16:16:11.490Z,2.17
2018-12-11T16:18:13.448Z,2.30
2018-12-11T16:20:15.407Z,2.07
2018-12-11T16:22:17.402Z,2.37
2018-12-11T16:24:19.352Z,2.87
2018-12-11T16:26:21.294Z,2.10
2018-12-11T16:28:23.268Z,2.37
2018-12-11T16:30:25.533Z,2.50
2018-12-11T16:32:27.603Z,2.70
2018-12-11T16:34:29.553Z,2.60
2018-12-11T16:36:31.602Z,3.20
2018-12-11T16:38:33.562Z,2.70
2018-12-11T16:40:35.546Z,3.17
2018-12-11T16:42:37.508Z,3.07
2018-12-11T16:44:39.458Z,9.70
2018-12-11T16:46:41.438Z,4.57
2018-12-11T16:48:43.375Z,10.90
2018-12-11T16:50:45.319Z,8.07
2018-12-11T16:52:47.280Z,9.87
2018-12-11T16:54:49.235Z,9.40
2018-12-11T16:56:51.195Z,9.13
2018-12-11T16:58:53.171Z,10.63
2018-12-11T17:00:55.130Z,7.90
2018-12-11T17:02:57.123Z,3.00
2018-12-11T17:04:59.074Z,4.13
2018-12-11T17:07:01.019Z,3.70
2018-12-11T17:09:05.038Z,3.20
2018-12-11T17:11:06.970Z,2.97
2018-12-11T17:13:09.110Z,2.80
2018-12-11T17:15:16.027Z,2.30
2018-12-11T17:17:18.078Z,2.87
2018-12-11T17:19:20.035Z,2.60
2018-12-11T17:21:22.641Z,3.00
2018-12-11T17:23:25.135Z,2.80
2018-12-11T17:25:27.086Z,2.40
2018-12-11T17:27:29.036Z,3.00
2018-12-11T17:29:30.980Z,2.60
2018-12-11T17:31:33.033Z,2.33
2018-12-11T17:33:34.983Z,2.70
2018-12-11T17:35:36.914Z,2.87
2018-12-11T17:37:38.862Z,3.37
2018-12-11T17:39:40.818Z,2.50
2018-12-11T17:41:42.771Z,3.00
2018-12-11T17:43:44.719Z,2.67
2018-12-11T17:45:46.677Z,3.37
2018-12-11T17:47:48.675Z,2.80
2018-12-11T17:49:50.635Z,2.40
2018-12-11T17:51:52.575Z,2.57
2018-12-11T17:53:54.567Z,3.00
2018-12-11T17:55:56.519Z,2.40
2018-12-11T17:57:58.480Z,2.50
2018-12-11T18:00:00.555Z,2.80
2018-12-11T18:02:04.881Z,2.20
2018-12-11T18:04:06.834Z,2.60
2018-12-11T18:06:08.835Z,2.27
2018-12-11T18:08:10.798Z,2.90
2018-12-11T18:10:12.762Z,2.30
2018-12-11T18:12:14.715Z,3.00
2018-12-11T18:14:16.654Z,2.63
2018-12-11T18:16:18.625Z,2.87
2018-12-11T18:18:20.575Z,2.87
2018-12-11T18:20:22.538Z,3.30
2018-12-11T18:22:24.606Z,3.17
2018-12-11T18:24:26.553Z,4.20
2018-12-11T18:26:28.502Z,2.80
2018-12-11T18:28:30.687Z,3.23
2018-12-11T18:30:32.647Z,2.73
2018-12-11T18:32:34.736Z,3.03
2018-12-11T18:34:43.767Z,2.60
2018-12-11T18:36:45.714Z,3.30
2018-12-11T18:38:47.670Z,2.97
2018-12-11T18:40:49.727Z,2.80
2018-12-11T18:42:51.760Z,3.67
2018-12-11T18:44:53.743Z,2.60
2018-12-11T18:46:55.714Z,3.67
2018-12-11T18:48:57.646Z,3.10
2018-12-11T18:50:59.723Z,3.00
2018-12-11T18:53:01.675Z,4.00
2018-12-11T18:55:03.696Z,5.43
2018-12-11T18:57:05.683Z,3.70
2018-12-11T18:59:07.656Z,3.10
2018-12-11T19:01:09.707Z,3.63
2018-12-11T19:03:11.667Z,3.53
2018-12-11T19:05:13.679Z,3.53
2018-12-11T19:07:15.654Z,3.50
2018-12-11T19:09:17.607Z,4.17
2018-12-11T19:11:19.555Z,3.63
2018-12-11T19:13:21.498Z,3.43
2018-12-11T19:15:23.454Z,3.50
2018-12-11T19:17:25.394Z,2.87
2018-12-11T19:19:27.350Z,2.77
2018-12-11T19:21:29.294Z,2.60
2018-12-11T19:23:40.302Z,2.83
2018-12-11T19:25:42.355Z,3.10
2018-12-11T19:27:44.343Z,3.50
2018-12-11T19:29:46.294Z,2.93
2018-12-11T19:31:48.358Z,3.20
2018-12-11T19:33:50.303Z,3.20
2018-12-11T19:35:52.298Z,3.87
2018-12-11T19:37:54.248Z,3.80
2018-12-11T19:40:01.885Z,2.90
2018-12-11T19:42:00.163Z,3.67
2018-12-11T19:44:02.102Z,3.80
2018-12-11T19:46:04.071Z,3.80
2018-12-11T19:48:05.870Z,4.27
2018-12-11T19:50:07.826Z,3.40
2018-12-11T19:52:09.842Z,4.13
2018-12-11T19:54:11.790Z,4.17
2018-12-11T19:56:13.857Z,4.07
2018-12-11T19:58:15.808Z,4.80
2018-12-11T20:00:17.762Z,4.47
2018-12-11T20:02:19.690Z,4.30
2018-12-11T20:04:21.953Z,4.23
2018-12-11T20:06:23.915Z,3.20
2018-12-11T20:08:31.098Z,3.93
2018-12-11T20:10:29.939Z,3.77
2018-12-11T20:12:31.895Z,4.00
2018-12-11T20:14:33.839Z,3.90
2018-12-11T20:16:35.791Z,4.13
2018-12-11T20:18:37.738Z,4.20
2018-12-11T20:20:39.691Z,4.70
2018-12-11T20:22:41.635Z,4.00
2018-12-11T20:24:43.582Z,3.70
2018-12-11T20:26:45.518Z,3.60
2018-12-11T20:28:47.450Z,4.10
2018-12-11T20:30:49.411Z,3.70
2018-12-11T20:32:51.362Z,3.90
2018-12-11T20:34:53.307Z,3.93
2018-12-11T20:36:55.370Z,3.93
2018-12-11T20:38:57.314Z,4.20
2018-12-11T20:40:59.270Z,3.67
2018-12-11T20:43:01.635Z,4.60
2018-12-11T20:45:04.499Z,4.10
2018-12-11T20:47:06.442Z,3.90
2018-12-11T20:49:08.391Z,4.57
2018-12-11T20:51:10.326Z,3.93
2018-12-11T20:53:12.287Z,3.87
2018-12-11T20:55:14.287Z,4.00
2018-12-11T20:57:16.234Z,4.40
2018-12-11T20:59:18.194Z,4.10
2018-12-11T21:01:20.149Z,4.53
2018-12-11T21:03:22.159Z,4.60
2018-12-11T21:05:24.116Z,4.20
2018-12-11T21:07:26.067Z,4.20
2018-12-11T21:09:28.006Z,4.50
2018-12-11T21:11:29.975Z,3.93
2018-12-11T21:13:31.918Z,4.87
2018-12-11T21:15:33.883Z,4.30
2018-12-11T21:17:35.856Z,5.10
2018-12-11T21:19:37.798Z,4.30
2018-12-11T21:21:39.762Z,4.43
2018-12-11T21:23:41.834Z,4.53
2018-12-11T21:25:43.784Z,4.97
2018-12-11T21:27:45.735Z,4.63
2018-12-11T21:29:47.694Z,4.50
2018-12-11T21:31:49.663Z,5.30
2018-12-11T21:33:51.610Z,5.13
2018-12-11T21:35:53.571Z,4.73
2018-12-11T21:37:55.626Z,5.07
2018-12-11T21:39:57.595Z,4.80
2018-12-11T21:41:59.537Z,4.40
2018-12-11T21:44:01.500Z,4.40
2018-12-11T21:46:03.458Z,4.50
2018-12-11T21:48:05.431Z,4.47
2018-12-11T21:50:07.690Z,5.10
2018-12-11T21:52:09.646Z,5.60
2018-12-11T21:54:11.618Z,4.30
2018-12-11T21:56:13.567Z,5.23
2018-12-11T21:58:15.665Z,5.47
2018-12-11T22:00:17.615Z,4.20
2018-12-11T22:02:19.563Z,4.40
2018-12-11T22:04:21.506Z,5.50
2018-12-11T22:06:23.566Z,5.23
2018-12-11T22:08:25.519Z,5.40
2018-12-11T22:10:27.467Z,4.80
2018-12-11T22:12:29.644Z,5.03
2018-12-11T22:14:31.586Z,5.20
2018-12-11T22:16:33.539Z,5.00
2018-12-11T22:18:35.498Z,4.80
2018-12-11T22:20:37.442Z,6.27
2018-12-11T22:22:39.394Z,4.80
2018-12-11T22:24:41.351Z,5.40
2018-12-11T22:26:43.346Z,4.80
2018-12-11T22:28:45.294Z,5.17
2018-12-11T22:30:47.242Z,5.03
2018-12-11T22:32:49.190Z,4.63
2018-12-11T22:34:51.138Z,5.90
2018-12-11T22:36:53.082Z,4.90
2018-12-11T22:38:55.027Z,5.70
2018-12-11T22:40:56.982Z,4.90
2018-12-11T22:42:58.934Z,6.33
2018-12-11T22:45:00.880Z,5.13
2018-12-11T22:47:02.935Z,5.63
2018-12-11T22:49:04.894Z,5.90
2018-12-11T22:51:07.565Z,5.17
2018-12-11T22:53:10.435Z,6.50
2018-12-11T22:55:12.410Z,5.43
2018-12-11T22:57:14.364Z,5.70
2018-12-11T22:59:16.319Z,5.97
2018-12-11T23:01:18.392Z,5.93
2018-12-11T23:03:20.351Z,5.40
2018-12-11T23:05:22.295Z,6.20
2018-12-11T23:07:24.258Z,6.00
2018-12-11T23:09:26.314Z,5.23
2018-12-11T23:11:28.290Z,5.67
2018-12-11T23:13:30.248Z,5.90
2018-12-11T23:15:32.419Z,5.93
2018-12-11T23:17:34.366Z,6.30
2018-12-11T23:19:36.318Z,6.07
2018-12-11T23:21:38.295Z,5.47
2018-12-11T23:23:40.695Z,5.53
2018-12-11T23:25:42.642Z,6.17
2018-12-11T23:27:44.586Z,5.33
2018-12-11T23:29:46.538Z,5.97
2018-12-11T23:31:48.492Z,5.50
2018-12-11T23:33:50.471Z,6.13
2018-12-11T23:35:52.415Z,5.20
2018-12-11T23:37:54.350Z,5.93
2018-12-11T23:39:56.318Z,5.80
2018-12-11T23:41:58.275Z,6.20
2018-12-11T23:44:00.231Z,5.97
2018-12-11T23:46:02.183Z,5.30
2018-12-11T23:48:04.134Z,6.30
2018-12-11T23:50:06.086Z,5.90
2018-12-11T23:52:08.042Z,7.20
2018-12-11T23:54:10.002Z,5.50
2018-12-11T23:56:11.945Z,5.30
2018-12-11T23:58:13.902Z,6.00
